createdAt,value
2023-02-23T00:01:23.076Z,14.02
2023-02-23T00:03:30.234Z,14.30
2023-02-23T00:05:40.512Z,13.30
2023-02-23T00:07:48.047Z,14.00
2023-02-23T00:09:56.202Z,14.52
2023-02-23T00:12:08.584Z,13.88
2023-02-23T00:14:15.940Z,13.88
2023-02-23T00:16:24.952Z,12.98
2023-02-23T00:18:32.146Z,14.65
2023-02-23T00:20:46.348Z,14.77
2023-02-23T00:22:54.757Z,14.88
2023-02-23T00:25:02.455Z,15.75
2023-02-23T00:27:11.064Z,16.20
2023-02-23T00:29:19.991Z,17.92
2023-02-23T00:31:28.853Z,18.33
2023-02-23T00:33:37.218Z,18.67
2023-02-23T00:35:46.349Z,18.63
2023-02-23T00:37:53.332Z,20.52
2023-02-23T00:40:00.766Z,19.98
2023-02-23T00:42:08.660Z,20.75
2023-02-23T00:44:16.660Z,20.90
2023-02-23T00:46:25.075Z,20.75
2023-02-23T00:48:32.408Z,20.10
2023-02-23T00:50:42.609Z,20.58
2023-02-23T00:52:51.840Z,20.88
2023-02-23T00:54:58.975Z,20.40
2023-02-23T00:57:06.361Z,19.88
2023-02-23T00:59:13.747Z,19.15
2023-02-23T01:01:22.048Z,17.92
2023-02-23T01:03:31.029Z,18.52
2023-02-23T01:05:39.090Z,17.98
2023-02-23T01:07:47.739Z,17.38
2023-02-23T01:09:56.868Z,17.70
2023-02-23T01:12:08.348Z,18.40
2023-02-23T01:14:15.271Z,16.27
2023-02-23T01:16:24.245Z,17.58
2023-02-23T01:18:31.205Z,16.75
2023-02-23T01:20:42.665Z,16.90
2023-02-23T01:22:52.606Z,16.33
2023-02-23T01:25:01.681Z,17.83
2023-02-23T01:27:08.701Z,19.00
2023-02-23T01:29:18.174Z,19.00
2023-02-23T01:31:25.845Z,17.35
2023-02-23T01:33:33.116Z,17.98
2023-02-23T01:35:40.859Z,17.23
2023-02-23T01:37:48.451Z,16.95
2023-02-23T01:39:55.529Z,19.77
2023-02-23T01:42:06.398Z,18.45
2023-02-23T01:44:51.470Z,16.98
2023-02-23T01:46:59.430Z,16.13
2023-02-23T01:49:07.115Z,17.63
2023-02-23T01:51:17.023Z,17.52
2023-02-23T01:53:25.213Z,17.92
2023-02-23T01:55:33.576Z,16.92
2023-02-23T01:57:42.750Z,16.00
2023-02-23T01:59:51.877Z,17.02
2023-02-23T02:02:01.669Z,16.58
2023-02-23T02:04:09.157Z,16.27
2023-02-23T02:06:18.798Z,16.90
2023-02-23T02:08:27.771Z,15.32
2023-02-23T02:10:46.935Z,16.10
2023-02-23T02:13:00.008Z,15.82
2023-02-23T02:15:09.642Z,16.55
2023-02-23T02:17:31.160Z,14.43
2023-02-23T02:20:14.755Z,15.87
2023-02-23T02:22:49.217Z,16.45
2023-02-23T02:25:34.646Z,12.85
2023-02-23T02:28:10.449Z,14.75
2023-02-23T02:30:46.637Z,15.95
2023-02-23T02:33:33.068Z,15.00
2023-02-23T02:36:18.798Z,13.80
2023-02-23T02:38:51.783Z,15.48
2023-02-23T02:41:05.210Z,15.07
2023-02-23T02:43:19.975Z,17.45
2023-02-23T02:45:31.762Z,16.67
2023-02-23T02:49:53.705Z,13.25
2023-02-23T02:52:09.030Z,14.25
2023-02-23T02:54:26.449Z,14.40
2023-02-23T02:56:34.605Z,13.52
2023-02-23T02:58:44.605Z,15.60
2023-02-23T03:01:09.843Z,15.23
2023-02-23T03:03:51.604Z,18.70
2023-02-23T03:06:16.093Z,12.30
2023-02-23T03:08:43.698Z,11.05
2023-02-23T03:11:16.693Z,11.40
2023-02-23T03:13:53.049Z,10.95
2023-02-23T03:16:33.206Z,19.20
2023-02-23T03:19:18.633Z,12.02
2023-02-23T03:21:47.526Z,10.85
2023-02-23T03:24:20.101Z,11.50
2023-02-23T03:26:55.908Z,9.85
2023-02-23T03:29:28.437Z,10.23
2023-02-23T03:32:00.487Z,14.07
2023-02-23T03:34:30.903Z,11.35
2023-02-23T03:36:58.994Z,13.50
2023-02-23T03:39:30.700Z,11.95
2023-02-23T03:42:00.169Z,10.20
2023-02-23T03:44:29.199Z,11.95
2023-02-23T03:46:55.030Z,11.10
2023-02-23T03:49:22.021Z,10.90
2023-02-23T03:51:47.628Z,11.05
2023-02-23T03:54:13.762Z,11.05
2023-02-23T03:56:40.753Z,9.75
2023-02-23T03:59:10.929Z,10.73
2023-02-23T04:01:38.010Z,8.88
2023-02-23T04:04:04.142Z,10.90
2023-02-23T04:06:31.188Z,10.45
2023-02-23T04:08:57.670Z,9.88
2023-02-23T04:11:29.895Z,11.05
2023-02-23T04:13:38.816Z,11.90
2023-02-23T04:15:53.007Z,10.90
2023-02-23T04:18:00.599Z,13.00
2023-02-23T04:20:09.218Z,11.77
2023-02-23T04:22:16.497Z,11.55
2023-02-23T04:24:23.884Z,11.48
2023-02-23T04:26:31.066Z,11.45
2023-02-23T04:28:38.097Z,11.40
2023-02-23T04:30:47.140Z,11.13
2023-02-23T04:32:54.096Z,10.75
2023-02-23T04:35:01.696Z,10.20
2023-02-23T04:37:08.716Z,9.52
2023-02-23T04:39:16.364Z,8.88
2023-02-23T04:41:23.339Z,8.38
2023-02-23T04:43:30.673Z,8.80
2023-02-23T04:45:37.817Z,8.45
2023-02-23T04:47:46.694Z,9.27
2023-02-23T04:49:53.601Z,9.75
2023-02-23T04:52:00.938Z,9.52
2023-02-23T04:54:08.119Z,9.52
2023-02-23T04:56:15.249Z,8.68
2023-02-23T04:58:22.122Z,9.35
2023-02-23T05:00:30.474Z,9.05
2023-02-23T05:02:37.475Z,7.97
2023-02-23T05:04:46.475Z,7.68
2023-02-23T05:06:53.665Z,7.88
2023-02-23T05:09:01.111Z,8.55
2023-02-23T05:11:09.776Z,7.85
2023-02-23T05:13:17.373Z,7.63
2023-02-23T05:15:24.293Z,8.50
2023-02-23T05:17:31.508Z,8.52
2023-02-23T05:19:38.548Z,8.35
2023-02-23T05:21:47.572Z,7.95
2023-02-23T05:23:54.752Z,8.68
2023-02-23T05:26:07.364Z,8.55
2023-02-23T05:28:14.360Z,8.85
2023-02-23T05:30:21.982Z,8.73
2023-02-23T05:32:28.976Z,9.18
2023-02-23T05:34:36.398Z,8.65
2023-02-23T05:36:43.268Z,11.27
2023-02-23T05:38:52.451Z,9.00
2023-02-23T05:40:59.320Z,9.50
2023-02-23T05:43:06.399Z,9.25
2023-02-23T05:45:13.476Z,9.60
2023-02-23T05:47:20.815Z,8.73
2023-02-23T05:49:27.843Z,9.20
2023-02-23T05:51:37.277Z,9.40
2023-02-23T05:53:44.661Z,9.05
2023-02-23T05:55:53.738Z,9.43
2023-02-23T05:58:00.713Z,9.93
2023-02-23T06:00:10.051Z,9.23
2023-02-23T06:02:16.989Z,10.38
2023-02-23T06:04:24.363Z,8.88
2023-02-23T06:06:31.544Z,9.07
2023-02-23T06:08:38.723Z,9.10
2023-02-23T06:10:45.602Z,9.05
2023-02-23T06:12:54.419Z,8.85
2023-02-23T06:15:01.814Z,9.27
2023-02-23T06:17:09.350Z,9.13
2023-02-23T06:19:16.290Z,8.70
2023-02-23T06:21:23.967Z,8.40
2023-02-23T06:23:31.508Z,9.88
2023-02-23T06:25:38.943Z,9.48
2023-02-23T06:27:46.590Z,8.52
2023-02-23T06:29:55.713Z,9.00
2023-02-23T06:32:02.932Z,9.07
2023-02-23T06:34:10.284Z,9.15
2023-02-23T06:36:17.674Z,9.18
2023-02-23T06:38:27.153Z,9.23
2023-02-23T06:40:34.077Z,8.90
2023-02-23T06:42:41.568Z,8.98
2023-02-23T06:44:48.597Z,9.45
2023-02-23T06:46:57.746Z,8.70
2023-02-23T06:49:04.700Z,8.88
2023-02-23T06:51:11.934Z,8.68
2023-02-23T06:53:19.371Z,9.23
2023-02-23T06:55:26.809Z,8.60
2023-02-23T06:57:33.784Z,9.45
2023-02-23T06:59:41.067Z,9.32
2023-02-23T07:01:48.052Z,8.98
2023-02-23T07:03:57.145Z,9.90
2023-02-23T07:06:05.784Z,8.90
2023-02-23T07:08:12.862Z,8.95
2023-02-23T07:10:20.657Z,8.40
2023-02-23T07:12:27.945Z,8.52
2023-02-23T07:14:35.378Z,8.32
2023-02-23T07:16:43.037Z,9.43
2023-02-23T07:18:50.051Z,8.50
2023-02-23T07:20:59.049Z,9.20
2023-02-23T07:23:05.998Z,9.10
2023-02-23T07:25:13.750Z,9.55
2023-02-23T07:27:20.622Z,9.85
2023-02-23T07:29:29.234Z,9.25
2023-02-23T07:31:36.232Z,9.52
2023-02-23T07:33:43.440Z,8.75
2023-02-23T07:35:50.318Z,9.27
2023-02-23T07:37:59.395Z,9.50
2023-02-23T07:40:07.039Z,9.95
2023-02-23T07:42:14.270Z,9.85
2023-02-23T07:44:21.198Z,9.70
2023-02-23T07:46:28.640Z,10.48
2023-02-23T07:48:36.125Z,10.95
2023-02-23T07:50:44.449Z,10.60
2023-02-23T07:52:51.736Z,11.55
2023-02-23T07:55:00.589Z,10.48
2023-02-23T07:57:07.469Z,10.23
2023-02-23T07:59:15.271Z,10.95
2023-02-23T08:01:22.499Z,10.85
2023-02-23T08:03:29.931Z,11.48
2023-02-23T08:05:37.729Z,10.60
2023-02-23T08:07:45.065Z,10.45
2023-02-23T08:09:52.552Z,10.60
2023-02-23T08:12:01.534Z,9.57
2023-02-23T08:14:08.500Z,10.50
2023-02-23T08:16:17.440Z,10.27
2023-02-23T08:18:24.480Z,10.02
2023-02-23T08:20:33.324Z,10.20
2023-02-23T08:22:49.390Z,10.85
2023-02-23T08:24:57.061Z,9.50
2023-02-23T08:27:06.337Z,10.63
2023-02-23T08:29:13.932Z,10.25
2023-02-23T08:31:25.285Z,10.63
2023-02-23T08:33:33.283Z,9.68
2023-02-23T08:35:40.340Z,10.50
2023-02-23T08:37:48.083Z,10.52
2023-02-23T08:39:55.007Z,10.30
2023-02-23T08:42:03.982Z,10.45
2023-02-23T08:44:11.069Z,9.85
2023-02-23T08:46:21.235Z,10.13
2023-02-23T08:48:28.216Z,10.45
2023-02-23T08:50:35.367Z,10.02
2023-02-23T08:52:42.665Z,9.70
2023-02-23T08:54:50.241Z,9.80
2023-02-23T08:57:00.597Z,10.35
2023-02-23T08:59:09.685Z,9.38
2023-02-23T09:01:24.542Z,10.25
2023-02-23T09:03:32.960Z,9.95
2023-02-23T09:05:41.429Z,10.32
2023-02-23T09:07:50.225Z,10.15
2023-02-23T09:10:01.145Z,10.05
2023-02-23T09:12:08.787Z,9.77
2023-02-23T09:14:17.970Z,10.13
2023-02-23T09:16:25.095Z,10.30
2023-02-23T09:18:33.663Z,11.25
2023-02-23T09:20:42.075Z,11.10
2023-02-23T09:22:55.188Z,11.02
2023-02-23T09:25:02.475Z,10.77
2023-02-23T09:27:13.599Z,10.55
2023-02-23T09:29:22.674Z,10.07
2023-02-23T09:31:29.981Z,10.25
2023-02-23T09:33:37.402Z,11.40
2023-02-23T09:35:44.528Z,11.10
2023-02-23T09:37:52.886Z,11.07
2023-02-23T09:39:59.800Z,11.27
2023-02-23T09:42:23.279Z,11.13
2023-02-23T09:44:56.159Z,11.38
2023-02-23T09:47:13.900Z,10.55
2023-02-23T09:49:25.630Z,11.20
2023-02-23T09:51:36.027Z,12.02
2023-02-23T09:53:46.801Z,12.55
2023-02-23T09:55:56.542Z,12.30
2023-02-23T09:58:11.764Z,12.00
2023-02-23T10:00:26.369Z,11.35
2023-02-23T10:02:37.958Z,11.18
2023-02-23T10:04:49.666Z,11.60
2023-02-23T10:07:03.788Z,12.18
2023-02-23T10:09:22.134Z,11.38
2023-02-23T10:11:33.130Z,10.75
2023-02-23T10:13:51.705Z,10.90
2023-02-23T10:16:04.173Z,10.40
2023-02-23T10:18:33.221Z,11.43
2023-02-23T10:20:53.746Z,10.80
2023-02-23T10:23:06.565Z,10.63
2023-02-23T10:25:16.612Z,11.02
2023-02-23T10:27:26.096Z,10.85
2023-02-23T10:29:37.834Z,11.32
2023-02-23T10:31:50.584Z,11.63
2023-02-23T10:34:01.309Z,11.52
2023-02-23T10:36:19.709Z,11.52
2023-02-23T10:38:26.682Z,11.52
2023-02-23T10:40:37.445Z,10.90
2023-02-23T10:42:44.630Z,11.38
2023-02-23T10:44:52.786Z,15.57
2023-02-23T10:47:04.664Z,13.75
2023-02-23T10:49:23.582Z,12.15
2023-02-23T10:51:39.632Z,11.30
2023-02-23T10:53:46.858Z,11.25
2023-02-23T10:56:08.242Z,10.57
2023-02-23T10:58:19.650Z,11.45
2023-02-23T11:00:34.155Z,10.95
2023-02-23T11:02:43.843Z,10.98
2023-02-23T11:04:57.126Z,10.98
2023-02-23T11:07:24.407Z,11.60
2023-02-23T11:09:46.188Z,11.40
2023-02-23T11:12:01.565Z,11.82
2023-02-23T11:14:20.725Z,11.02
2023-02-23T11:16:30.005Z,11.77
2023-02-23T11:18:39.393Z,12.75
2023-02-23T11:20:47.185Z,13.57
2023-02-23T11:22:55.758Z,14.55
2023-02-23T11:25:17.782Z,15.23
2023-02-23T11:27:27.246Z,15.82
2023-02-23T11:29:37.880Z,15.88
2023-02-23T11:31:52.098Z,15.35
2023-02-23T11:34:01.968Z,13.07
2023-02-23T11:36:21.197Z,13.00
2023-02-23T11:38:29.800Z,15.40
2023-02-23T11:40:37.538Z,19.02
2023-02-23T11:42:56.344Z,18.92
2023-02-23T11:45:08.988Z,17.73
2023-02-23T11:47:21.817Z,17.05
2023-02-23T11:49:34.327Z,17.35
2023-02-23T11:51:43.307Z,16.73
2023-02-23T11:53:51.065Z,16.65
2023-02-23T11:56:03.718Z,16.42
2023-02-23T11:58:23.691Z,17.00
2023-02-23T12:00:31.841Z,18.42
2023-02-23T12:02:51.570Z,18.83
2023-02-23T12:05:10.758Z,18.60
2023-02-23T12:07:42.642Z,18.27
2023-02-23T12:09:52.692Z,17.98
2023-02-23T12:12:10.114Z,18.40
2023-02-23T12:14:28.925Z,18.85
2023-02-23T12:16:41.654Z,16.90
2023-02-23T12:18:56.035Z,17.50
2023-02-23T12:21:13.399Z,17.83
2023-02-23T12:23:25.716Z,17.95
2023-02-23T12:25:38.118Z,18.05
2023-02-23T12:27:48.772Z,17.38
2023-02-23T12:30:09.124Z,17.85
2023-02-23T12:32:21.308Z,18.85
2023-02-23T12:34:34.068Z,16.95
2023-02-23T12:36:46.791Z,16.85
2023-02-23T12:38:59.391Z,18.67
2023-02-23T12:41:12.819Z,22.80
2023-02-23T12:43:26.141Z,24.38
2023-02-23T12:45:39.184Z,21.80
2023-02-23T12:47:52.534Z,19.23
2023-02-23T12:50:13.830Z,20.00
2023-02-23T12:52:27.127Z,18.95
2023-02-23T12:54:35.992Z,19.75
2023-02-23T12:57:05.189Z,18.85
2023-02-23T12:59:34.340Z,20.40
2023-02-23T13:01:45.977Z,19.55
2023-02-23T13:06:26.044Z,19.67
2023-02-23T13:08:49.765Z,19.27
2023-02-23T13:11:07.543Z,19.63
2023-02-23T13:13:25.745Z,19.90
2023-02-23T13:15:47.764Z,20.52
2023-02-23T13:18:02.651Z,20.77
2023-02-23T13:20:19.237Z,22.08
2023-02-23T13:22:35.527Z,22.13
2023-02-23T13:24:49.364Z,21.60
2023-02-23T13:27:02.894Z,21.20
2023-02-23T13:29:25.651Z,22.38
2023-02-23T13:31:36.316Z,22.33
2023-02-23T13:33:44.610Z,23.15
2023-02-23T13:35:51.945Z,24.27
2023-02-23T13:38:04.975Z,21.90
2023-02-23T13:40:31.205Z,22.27
2023-02-23T13:42:48.515Z,21.73
2023-02-23T13:45:02.089Z,21.10
2023-02-23T13:47:17.820Z,21.73
2023-02-23T13:49:37.700Z,23.00
2023-02-23T13:51:49.849Z,23.63
2023-02-23T13:54:05.327Z,25.27
2023-02-23T13:56:18.653Z,25.73
2023-02-23T13:58:33.006Z,24.08
2023-02-23T14:00:40.030Z,24.67
2023-02-23T14:02:49.511Z,25.30
2023-02-23T14:04:59.922Z,23.73
2023-02-23T14:07:19.901Z,23.92
2023-02-23T14:09:33.024Z,22.98
2023-02-23T14:11:52.287Z,22.75
2023-02-23T14:14:03.670Z,28.08
2023-02-23T14:16:17.590Z,27.85
2023-02-23T14:18:35.954Z,23.67
2023-02-23T14:20:58.253Z,26.90
2023-02-23T14:25:48.753Z,21.63
2023-02-23T14:28:07.760Z,23.00
2023-02-23T14:30:26.466Z,22.95
2023-02-23T14:32:40.700Z,23.25
2023-02-23T14:34:51.233Z,23.65
2023-02-23T14:36:58.557Z,26.33
2023-02-23T14:39:10.279Z,25.30
2023-02-23T14:41:17.565Z,23.67
2023-02-23T14:43:47.394Z,25.20
2023-02-23T14:45:58.907Z,24.50
2023-02-23T14:48:09.379Z,27.60
2023-02-23T14:50:21.376Z,30.77
2023-02-23T14:52:30.842Z,28.48
2023-02-23T14:54:39.628Z,27.35
2023-02-23T14:56:53.985Z,26.58
2023-02-23T14:59:03.049Z,26.48
2023-02-23T15:01:09.975Z,26.02
2023-02-23T15:03:17.156Z,27.50
2023-02-23T15:05:28.487Z,26.20
2023-02-23T15:07:39.968Z,28.63
2023-02-23T15:09:48.192Z,27.38
2023-02-23T15:11:56.787Z,27.67
2023-02-23T15:14:07.381Z,27.27
2023-02-23T15:16:22.724Z,28.10
2023-02-23T15:18:34.102Z,30.67
2023-02-23T15:20:41.542Z,27.95
2023-02-23T15:22:51.543Z,27.88
2023-02-23T15:25:02.046Z,30.15
2023-02-23T15:27:08.974Z,33.85
2023-02-23T15:29:20.046Z,34.17
2023-02-23T15:31:27.028Z,32.72
2023-02-23T15:33:34.615Z,27.02
2023-02-23T15:35:48.515Z,28.13
2023-02-23T15:38:05.868Z,28.88
2023-02-23T15:40:24.426Z,27.75
2023-02-23T15:42:37.507Z,27.98
2023-02-23T15:44:46.468Z,28.90
2023-02-23T15:46:57.538Z,29.20
2023-02-23T15:49:06.410Z,30.27
2023-02-23T15:51:27.495Z,28.67
2023-02-23T15:53:39.360Z,29.33
2023-02-23T15:55:47.362Z,30.30
2023-02-23T15:57:59.922Z,30.23
2023-02-23T16:00:20.630Z,31.73
2023-02-23T16:02:28.981Z,32.22
2023-02-23T16:04:43.279Z,30.02
2023-02-23T16:06:55.153Z,28.63
2023-02-23T16:09:04.191Z,28.15
2023-02-23T16:11:16.092Z,28.45
2023-02-23T16:13:25.269Z,30.08
2023-02-23T16:15:38.696Z,29.92
2023-02-23T16:17:48.848Z,28.48
2023-02-23T16:19:57.655Z,30.80
2023-02-23T16:22:04.592Z,30.92
2023-02-23T16:24:23.243Z,31.27
2023-02-23T16:26:34.060Z,30.65
2023-02-23T16:28:46.442Z,29.55
2023-02-23T16:33:13.978Z,29.48
2023-02-23T16:35:22.706Z,30.50
2023-02-23T16:37:29.892Z,28.92
2023-02-23T16:39:36.760Z,30.17
2023-02-23T16:41:44.151Z,32.15
2023-02-23T16:43:52.920Z,32.03
2023-02-23T16:46:02.204Z,31.42
2023-02-23T16:48:12.662Z,31.88
2023-02-23T16:50:21.995Z,30.63
2023-02-23T16:52:28.963Z,29.70
2023-02-23T16:54:36.147Z,29.90
2023-02-23T16:56:43.635Z,31.83
2023-02-23T16:58:54.810Z,30.40
2023-02-23T17:01:03.639Z,30.88
2023-02-23T17:03:16.474Z,30.33
2023-02-23T17:05:26.286Z,29.92
2023-02-23T17:07:33.215Z,32.20
2023-02-23T17:09:40.396Z,31.25
2023-02-23T17:11:48.038Z,29.75
2023-02-23T17:13:55.228Z,30.63
2023-02-23T17:16:05.525Z,30.52
2023-02-23T17:18:12.808Z,31.13
2023-02-23T17:20:22.500Z,29.27
2023-02-23T17:22:30.141Z,29.58
2023-02-23T17:24:37.373Z,29.58
2023-02-23T17:26:44.553Z,31.13
2023-02-23T17:28:52.295Z,32.25
2023-02-23T17:30:59.259Z,32.03
2023-02-23T17:33:09.591Z,31.08
2023-02-23T17:35:16.658Z,30.15
2023-02-23T17:37:23.842Z,29.05
2023-02-23T17:39:30.813Z,29.50
2023-02-23T17:41:38.045Z,30.38
2023-02-23T17:43:45.022Z,31.98
2023-02-23T17:45:52.610Z,30.33
2023-02-23T17:48:00.511Z,30.00
2023-02-23T17:50:10.662Z,29.38
2023-02-23T17:52:17.745Z,30.83
2023-02-23T17:54:25.076Z,30.30
2023-02-23T17:56:32.653Z,30.27
2023-02-23T17:58:40.469Z,28.42
2023-02-23T18:00:47.390Z,28.77
2023-02-23T18:02:54.599Z,31.17
2023-02-23T18:05:01.548Z,30.05
2023-02-23T18:07:10.470Z,30.33
2023-02-23T18:09:17.721Z,28.65
2023-02-23T18:11:24.996Z,30.13
2023-02-23T18:13:34.350Z,30.77
2023-02-23T18:15:41.307Z,29.85
2023-02-23T18:17:48.630Z,29.23
2023-02-23T18:19:55.866Z,31.85
2023-02-23T18:22:03.044Z,28.80
2023-02-23T18:24:11.918Z,28.83
2023-02-23T18:26:21.152Z,30.98
2023-02-23T18:28:28.002Z,30.67
2023-02-23T18:30:35.099Z,29.25
2023-02-23T18:32:42.233Z,29.23
2023-02-23T18:34:49.568Z,28.75
2023-02-23T18:36:56.600Z,30.17
2023-02-23T18:39:04.497Z,30.83
2023-02-23T18:41:13.725Z,31.88
2023-02-23T18:43:20.902Z,30.23
2023-02-23T18:45:27.934Z,28.85
2023-02-23T18:47:35.218Z,28.10
2023-02-23T18:49:42.466Z,29.10
2023-02-23T18:51:50.044Z,28.95
2023-02-23T18:53:57.428Z,27.45
2023-02-23T18:56:08.859Z,29.30
2023-02-23T18:58:17.526Z,30.02
2023-02-23T19:00:25.599Z,32.05
2023-02-23T19:02:32.657Z,32.25
2023-02-23T19:04:40.277Z,31.65
2023-02-23T19:06:49.224Z,33.10
2023-02-23T19:08:58.346Z,29.80
2023-02-23T19:11:05.586Z,28.77
2023-02-23T19:13:12.760Z,28.98
2023-02-23T19:15:21.636Z,29.23
2023-02-23T19:17:29.581Z,32.38
2023-02-23T19:19:36.663Z,31.33
2023-02-23T19:21:44.666Z,31.77
2023-02-23T19:23:51.952Z,33.83
2023-02-23T19:25:59.946Z,33.65
2023-02-23T19:28:06.981Z,34.58
2023-02-23T19:30:15.899Z,32.10
2023-02-23T19:32:24.632Z,37.60
2023-02-23T19:34:32.512Z,34.13
2023-02-23T19:36:39.492Z,32.28
2023-02-23T19:38:46.620Z,34.70
2023-02-23T19:40:53.853Z,35.42
2023-02-23T19:43:00.936Z,40.00
2023-02-23T19:45:08.784Z,44.70
2023-02-23T19:47:16.124Z,41.13
2023-02-23T19:49:25.045Z,39.38
2023-02-23T19:51:32.092Z,38.33
2023-02-23T19:53:39.300Z,42.70
2023-02-23T19:55:46.228Z,41.08
2023-02-23T19:57:54.904Z,42.67
2023-02-23T20:00:01.921Z,39.55
2023-02-23T20:02:15.801Z,42.13
2023-02-23T20:04:24.479Z,44.58
2023-02-23T20:06:33.298Z,43.72
2023-02-23T20:08:40.222Z,41.85
2023-02-23T20:10:47.865Z,39.00
2023-02-23T20:12:55.507Z,39.10
2023-02-23T20:15:02.891Z,38.08
2023-02-23T20:17:10.076Z,39.03
2023-02-23T20:19:17.360Z,38.78
2023-02-23T20:21:27.657Z,39.45
2023-02-23T20:23:35.012Z,38.58
2023-02-23T20:25:45.197Z,37.33
2023-02-23T20:27:53.181Z,38.42
2023-02-23T20:30:01.252Z,39.45
2023-02-23T20:32:09.415Z,39.20
2023-02-23T20:34:16.430Z,39.30
2023-02-23T20:36:26.582Z,39.83
2023-02-23T20:38:33.558Z,39.42
2023-02-23T20:40:41.206Z,37.28
2023-02-23T20:42:48.861Z,39.47
2023-02-23T20:44:56.487Z,39.22
2023-02-23T20:47:03.465Z,38.30
2023-02-23T20:49:12.798Z,36.45
2023-02-23T20:51:20.905Z,37.33
2023-02-23T20:53:31.360Z,35.38
2023-02-23T20:55:38.338Z,37.17
2023-02-23T20:57:47.146Z,36.65
2023-02-23T20:59:54.493Z,35.25
2023-02-23T21:02:02.751Z,34.05
2023-02-23T21:04:10.238Z,36.53
2023-02-23T21:06:17.833Z,35.38
2023-02-23T21:08:24.860Z,35.15
2023-02-23T21:10:37.009Z,36.83
2023-02-23T21:12:44.038Z,34.35
2023-02-23T21:14:52.291Z,34.28
2023-02-23T21:16:59.321Z,35.28
2023-02-23T21:19:09.425Z,36.03
2023-02-23T21:21:17.733Z,33.97
2023-02-23T21:23:24.966Z,32.88
2023-02-23T21:25:34.246Z,34.40
2023-02-23T21:27:41.933Z,36.58
2023-02-23T21:29:49.124Z,34.53
2023-02-23T21:31:56.453Z,35.70
2023-02-23T21:34:06.604Z,33.75
2023-02-23T21:36:14.862Z,36.55
2023-02-23T21:38:24.974Z,37.72
2023-02-23T21:40:34.294Z,35.28
2023-02-23T21:42:41.885Z,35.13
2023-02-23T21:44:49.376Z,36.60
2023-02-23T21:46:56.252Z,36.47
2023-02-23T21:49:10.602Z,35.28
2023-02-23T21:51:19.001Z,36.88
2023-02-23T21:53:26.603Z,33.55
2023-02-23T21:55:36.956Z,34.53
2023-02-23T21:57:44.240Z,34.15
2023-02-23T21:59:51.268Z,35.85
2023-02-23T22:01:58.467Z,37.28
2023-02-23T22:04:05.754Z,36.38
2023-02-23T22:06:13.018Z,37.15
2023-02-23T22:08:20.102Z,43.25
2023-02-23T22:10:28.302Z,37.10
2023-02-23T22:12:37.327Z,35.95
2023-02-23T22:14:44.561Z,38.78
2023-02-23T22:16:51.947Z,38.33
2023-02-23T22:18:59.221Z,42.85
2023-02-23T22:21:06.412Z,50.60
2023-02-23T22:23:14.976Z,46.45
2023-02-23T22:25:22.986Z,42.95
2023-02-23T22:27:30.364Z,47.20
2023-02-23T22:29:39.288Z,49.40
2023-02-23T22:31:46.761Z,47.17
2023-02-23T22:33:53.853Z,42.55
2023-02-23T22:36:03.593Z,44.40
2023-02-23T22:38:10.519Z,43.83
2023-02-23T22:40:18.377Z,51.85
2023-02-23T22:42:25.397Z,50.35
2023-02-23T22:44:32.577Z,66.57
2023-02-23T22:46:41.588Z,71.68
2023-02-23T22:48:49.552Z,61.60
2023-02-23T22:50:56.425Z,83.28
2023-02-23T22:53:04.271Z,98.35
2023-02-23T22:55:12.024Z,100.18
2023-02-23T22:57:19.302Z,77.97
2023-02-23T22:59:26.159Z,69.63
2023-02-23T23:01:33.209Z,95.00
2023-02-23T23:03:43.406Z,93.10
2023-02-23T23:05:53.351Z,100.50
2023-02-23T23:08:00.479Z,84.22
2023-02-23T23:10:10.272Z,85.28
2023-02-23T23:12:19.039Z,88.05
2023-02-23T23:14:26.477Z,99.45
2023-02-23T23:16:34.681Z,89.32
2023-02-23T23:18:44.630Z,79.97
2023-02-23T23:20:51.912Z,79.68
2023-02-23T23:22:59.347Z,82.13
2023-02-23T23:25:12.163Z,70.50
2023-02-23T23:27:20.842Z,71.90
2023-02-23T23:29:29.242Z,76.25
2023-02-23T23:31:37.694Z,69.75
2023-02-23T23:33:50.360Z,65.35
2023-02-23T23:35:57.554Z,73.85
2023-02-23T23:38:04.421Z,97.35
2023-02-23T23:40:16.416Z,108.68
2023-02-23T23:42:23.341Z,92.13
2023-02-23T23:44:31.055Z,87.45
2023-02-23T23:46:39.346Z,85.55
2023-02-23T23:48:48.730Z,88.55
2023-02-23T23:50:57.245Z,86.70
2023-02-23T23:53:05.559Z,89.43
2023-02-23T23:55:13.446Z,104.72
2023-02-23T23:57:20.679Z,101.70
2023-02-23T23:59:28.829Z,98.25
